createdAt,value
2023-01-09T00:02:04.456Z,6.44
2023-01-09T00:04:49.751Z,6.43
2023-01-09T00:07:35.270Z,6.40
2023-01-09T00:10:20.437Z,6.43
2023-01-09T00:13:05.704Z,6.41
2023-01-09T00:15:51.027Z,6.44
2023-01-09T00:18:37.152Z,6.43
2023-01-09T00:21:22.855Z,6.39
2023-01-09T00:24:08.415Z,6.39
2023-01-09T00:26:53.487Z,6.39
2023-01-09T00:29:38.907Z,6.36
2023-01-09T00:32:24.520Z,6.34
2023-01-09T00:35:14.233Z,6.31
2023-01-09T00:37:59.416Z,6.29
2023-01-09T00:40:44.530Z,6.28
2023-01-09T00:43:35.564Z,6.25
2023-01-09T00:46:26.096Z,6.24
2023-01-09T00:49:13.893Z,6.20
2023-01-09T00:51:59.221Z,6.19
2023-01-09T00:54:45.252Z,6.17
2023-01-09T00:57:30.994Z,6.15
2023-01-09T01:00:16.496Z,6.14
2023-01-09T01:03:02.311Z,6.13
2023-01-09T01:06:06.281Z,6.11
2023-01-09T01:08:51.331Z,6.09
2023-01-09T01:11:36.798Z,6.08
2023-01-09T01:14:22.802Z,6.05
2023-01-09T01:17:08.002Z,6.08
2023-01-09T01:19:53.117Z,6.05
2023-01-09T01:22:38.656Z,6.00
2023-01-09T01:25:23.783Z,5.89
2023-01-09T01:28:10.329Z,5.85
2023-01-09T01:30:55.693Z,5.80
2023-01-09T01:33:41.041Z,5.79
2023-01-09T01:36:26.430Z,5.82
2023-01-09T01:39:12.081Z,5.85
2023-01-09T01:41:57.336Z,5.85
2023-01-09T01:45:00.849Z,5.84
2023-01-09T01:47:52.973Z,5.85
2023-01-09T01:50:46.406Z,5.87
2023-01-09T01:53:44.785Z,5.86
2023-01-09T01:56:40.385Z,5.87
2023-01-09T01:59:31.682Z,5.87
2023-01-09T02:02:25.361Z,5.85
2023-01-09T02:05:11.444Z,5.76
2023-01-09T02:07:56.897Z,5.73
2023-01-09T02:10:43.543Z,5.71
2023-01-09T02:13:29.630Z,5.72
2023-01-09T02:16:30.757Z,5.72
2023-01-09T02:19:54.637Z,5.68
2023-01-09T02:23:07.467Z,5.66
2023-01-09T02:26:23.362Z,5.66
2023-01-09T02:29:32.807Z,5.66
2023-01-09T02:32:49.325Z,5.67
2023-01-09T02:35:49.576Z,5.63
2023-01-09T02:39:19.771Z,5.60
2023-01-09T02:42:22.517Z,5.56
2023-01-09T02:45:07.880Z,5.57
2023-01-09T02:47:53.093Z,5.57
2023-01-09T02:50:59.705Z,5.55
2023-01-09T02:54:04.310Z,5.50
2023-01-09T02:57:08.553Z,5.49
2023-01-09T03:00:08.049Z,5.46
2023-01-09T03:02:57.674Z,5.48
2023-01-09T03:05:51.272Z,5.50
2023-01-09T03:08:52.903Z,5.54
2023-01-09T03:11:42.818Z,5.55
2023-01-09T03:14:32.357Z,5.54
2023-01-09T03:17:25.939Z,5.51
2023-01-09T03:20:15.185Z,5.48
2023-01-09T03:23:02.814Z,5.50
2023-01-09T03:25:48.087Z,5.56
2023-01-09T03:28:33.642Z,5.59
2023-01-09T03:31:19.076Z,5.60
2023-01-09T03:34:04.658Z,5.64
2023-01-09T03:36:49.696Z,5.69
2023-01-09T03:39:34.864Z,5.74
2023-01-09T03:42:20.416Z,5.82
2023-01-09T03:45:06.564Z,5.87
2023-01-09T03:47:53.013Z,5.92
2023-01-09T03:50:38.385Z,5.94
2023-01-09T03:53:25.228Z,5.94
2023-01-09T03:56:10.635Z,5.97
2023-01-09T03:58:56.048Z,6.02
2023-01-09T04:01:41.475Z,6.04
2023-01-09T04:04:26.841Z,6.06
2023-01-09T04:07:12.312Z,6.06
2023-01-09T04:09:57.588Z,6.07
2023-01-09T04:12:42.884Z,6.08
2023-01-09T04:15:28.656Z,6.09
2023-01-09T04:18:14.700Z,6.12
2023-01-09T04:20:59.959Z,6.09
2023-01-09T04:23:45.570Z,6.10
2023-01-09T04:26:30.606Z,6.15
2023-01-09T04:29:16.068Z,6.17
2023-01-09T04:32:01.496Z,6.16
2023-01-09T04:34:46.805Z,6.16
2023-01-09T04:37:31.939Z,6.15
2023-01-09T04:40:17.862Z,6.13
2023-01-09T04:43:03.165Z,6.16
2023-01-09T04:45:48.512Z,6.19
2023-01-09T04:48:33.912Z,6.18
2023-01-09T04:51:19.240Z,6.18
2023-01-09T04:54:05.368Z,6.15
2023-01-09T04:56:50.730Z,6.12
2023-01-09T04:59:35.890Z,6.09
2023-01-09T05:02:21.202Z,6.08
2023-01-09T05:05:10.420Z,6.08
2023-01-09T05:07:56.614Z,6.09
2023-01-09T05:10:42.193Z,6.13
2023-01-09T05:13:27.823Z,6.11
2023-01-09T05:16:13.184Z,6.10
2023-01-09T05:19:00.312Z,6.06
2023-01-09T05:21:45.335Z,6.07
2023-01-09T05:24:30.777Z,6.10
2023-01-09T05:27:16.247Z,6.13
2023-01-09T05:30:01.710Z,6.14
2023-01-09T05:32:48.602Z,6.15
2023-01-09T05:35:34.048Z,6.16
2023-01-09T05:38:19.357Z,6.14
2023-01-09T05:41:04.949Z,6.18
2023-01-09T05:43:50.458Z,6.20
2023-01-09T05:46:35.993Z,6.24
2023-01-09T05:49:21.406Z,6.25
2023-01-09T05:52:07.820Z,6.30
2023-01-09T05:54:53.183Z,6.33
2023-01-09T05:57:38.279Z,6.36
2023-01-09T06:00:23.520Z,6.36
2023-01-09T06:03:08.702Z,6.36
2023-01-09T06:05:54.042Z,6.36
2023-01-09T06:08:39.258Z,6.37
2023-01-09T06:11:24.461Z,6.34
2023-01-09T06:14:09.582Z,6.34
2023-01-09T06:16:55.018Z,6.33
2023-01-09T06:19:40.322Z,6.33
2023-01-09T06:22:25.760Z,6.31
2023-01-09T06:27:57.700Z,6.31
2023-01-09T06:30:43.074Z,6.31
2023-01-09T06:33:29.281Z,6.30
2023-01-09T06:36:14.772Z,6.26
2023-01-09T06:39:00.188Z,6.24
2023-01-09T06:41:47.047Z,6.24
2023-01-09T06:44:36.383Z,6.26
2023-01-09T06:47:21.960Z,6.28
2023-01-09T06:50:09.227Z,6.25
2023-01-09T06:52:54.399Z,6.25
2023-01-09T06:55:39.626Z,6.27
2023-01-09T06:58:24.943Z,6.26
2023-01-09T07:01:10.569Z,6.28
2023-01-09T07:03:55.900Z,6.31
2023-01-09T07:06:40.962Z,6.32
2023-01-09T07:09:26.477Z,6.32
2023-01-09T07:12:12.768Z,6.31
2023-01-09T07:14:58.217Z,6.33
2023-01-09T07:17:43.539Z,6.32
2023-01-09T07:20:29.072Z,6.30
2023-01-09T07:23:15.315Z,6.31
2023-01-09T07:26:01.162Z,6.33
2023-01-09T07:28:46.502Z,6.32
2023-01-09T07:31:32.086Z,6.34
2023-01-09T07:34:17.291Z,6.37
2023-01-09T07:37:02.501Z,6.43
2023-01-09T07:39:47.567Z,6.46
2023-01-09T07:42:33.205Z,6.48
2023-01-09T07:45:18.414Z,6.52
2023-01-09T07:48:03.963Z,6.50
2023-01-09T07:50:49.242Z,6.51
2023-01-09T07:53:34.735Z,6.55
2023-01-09T07:56:20.386Z,6.58
2023-01-09T07:59:05.642Z,6.59
2023-01-09T08:01:50.895Z,6.52
2023-01-09T08:04:36.364Z,6.51
2023-01-09T08:07:21.395Z,6.50
2023-01-09T08:10:07.038Z,6.52
2023-01-09T08:12:52.301Z,6.58
2023-01-09T08:15:37.917Z,6.61
2023-01-09T08:18:23.088Z,6.66
2023-01-09T08:21:08.465Z,6.67
2023-01-09T08:23:53.775Z,6.73
2023-01-09T08:26:39.081Z,6.75
2023-01-09T08:29:24.283Z,6.78
2023-01-09T08:32:09.607Z,6.79
2023-01-09T08:34:54.940Z,6.80
2023-01-09T08:37:44.342Z,6.82
2023-01-09T08:40:29.726Z,6.83
2023-01-09T08:43:33.574Z,6.88
2023-01-09T08:46:40.076Z,6.97
2023-01-09T08:49:25.200Z,7.00
2023-01-09T08:52:10.565Z,6.99
2023-01-09T08:54:55.722Z,7.00
2023-01-09T08:57:49.221Z,6.96
2023-01-09T09:00:34.753Z,6.99
2023-01-09T09:03:19.825Z,6.95
2023-01-09T09:06:09.444Z,6.96
2023-01-09T09:08:54.665Z,6.96
2023-01-09T09:11:40.038Z,6.98
2023-01-09T09:14:43.909Z,7.03
2023-01-09T09:17:29.265Z,7.06
2023-01-09T09:20:14.384Z,7.14
2023-01-09T09:22:59.819Z,7.19
2023-01-09T09:25:44.959Z,7.20
2023-01-09T09:28:30.673Z,7.18
2023-01-09T09:31:16.051Z,7.16
2023-01-09T09:34:01.992Z,7.16
2023-01-09T09:36:48.524Z,7.17
2023-01-09T09:39:34.308Z,7.22
2023-01-09T09:43:33.215Z,7.31
2023-01-09T09:46:32.572Z,7.37
2023-01-09T09:49:27.163Z,7.46
2023-01-09T09:52:37.572Z,7.52
2023-01-09T09:55:35.404Z,7.61
2023-01-09T09:58:36.612Z,8.44
2023-01-09T10:01:27.151Z,9.07
2023-01-09T10:04:16.572Z,9.29
2023-01-09T10:07:09.768Z,9.06
2023-01-09T10:10:00.513Z,8.85
2023-01-09T10:12:53.564Z,8.63
2023-01-09T10:15:46.377Z,8.48
2023-01-09T10:18:43.837Z,8.44
2023-01-09T10:21:50.522Z,8.41
2023-01-09T10:24:44.895Z,8.42
2023-01-09T10:28:02.501Z,8.41
2023-01-09T10:30:53.153Z,8.43
2023-01-09T10:34:13.938Z,8.43
2023-01-09T10:37:02.016Z,8.43
2023-01-09T10:39:57.349Z,8.40
2023-01-09T10:42:52.265Z,8.40
2023-01-09T10:45:54.519Z,8.39
2023-01-09T10:48:44.295Z,8.38
2023-01-09T10:51:41.685Z,8.40
2023-01-09T10:54:29.414Z,8.40
2023-01-09T10:57:27.170Z,8.39
2023-01-09T11:00:18.702Z,8.38
2023-01-09T11:03:03.941Z,8.37
2023-01-09T11:05:55.601Z,8.39
2023-01-09T11:08:45.205Z,8.39
2023-01-09T11:11:34.044Z,8.43
2023-01-09T11:14:33.232Z,8.47
2023-01-09T11:17:21.568Z,8.48
2023-01-09T11:20:16.176Z,8.47
2023-01-09T11:23:01.790Z,8.48
2023-01-09T11:25:53.965Z,8.49
2023-01-09T11:28:39.356Z,8.47
2023-01-09T11:31:25.824Z,8.41
2023-01-09T11:34:20.558Z,8.33
2023-01-09T11:37:13.978Z,8.35
2023-01-09T11:40:00.839Z,8.39
2023-01-09T11:43:03.104Z,8.45
2023-01-09T11:46:01.387Z,8.53
2023-01-09T11:48:58.168Z,8.49
2023-01-09T11:51:43.951Z,8.45
2023-01-09T11:54:34.064Z,8.44
2023-01-09T11:57:21.547Z,8.45
2023-01-09T12:00:32.664Z,8.48
2023-01-09T12:03:36.677Z,8.47
2023-01-09T12:06:47.132Z,8.49
2023-01-09T12:10:08.158Z,8.66
2023-01-09T12:13:00.936Z,8.86
2023-01-09T12:16:15.266Z,8.92
2023-01-09T12:19:18.913Z,9.07
2023-01-09T12:22:27.028Z,9.19
2023-01-09T12:25:29.011Z,9.28
2023-01-09T12:28:42.598Z,9.21
2023-01-09T12:31:49.898Z,9.15
2023-01-09T12:34:50.589Z,8.89
2023-01-09T12:38:05.240Z,8.87
2023-01-09T12:41:11.207Z,9.01
2023-01-09T12:43:59.552Z,9.06
2023-01-09T12:47:06.386Z,9.07
2023-01-09T12:50:21.046Z,8.95
2023-01-09T12:53:12.663Z,8.80
2023-01-09T12:56:08.973Z,8.68
2023-01-09T12:59:00.141Z,8.67
2023-01-09T13:01:48.516Z,8.72
2023-01-09T13:04:43.043Z,8.74
2023-01-09T13:07:34.131Z,8.65
2023-01-09T13:10:47.893Z,8.65
2023-01-09T13:13:44.553Z,8.70
2023-01-09T13:16:56.983Z,8.72
2023-01-09T13:19:42.710Z,8.73
2023-01-09T13:22:29.357Z,8.78
2023-01-09T13:25:33.942Z,8.89
2023-01-09T13:28:24.747Z,8.99
2023-01-09T13:31:23.464Z,9.04
2023-01-09T13:34:23.492Z,9.08
2023-01-09T13:37:24.834Z,9.05
2023-01-09T13:40:15.876Z,9.05
2023-01-09T13:43:09.641Z,9.07
2023-01-09T13:45:55.222Z,9.06
2023-01-09T13:48:41.491Z,9.01
2023-01-09T13:51:37.300Z,8.97
2023-01-09T13:55:00.153Z,8.85
2023-01-09T13:58:05.553Z,8.72
2023-01-09T14:00:54.161Z,8.65
2023-01-09T14:03:39.982Z,8.68
2023-01-09T14:06:28.002Z,8.72
2023-01-09T14:09:22.936Z,8.75
2023-01-09T14:12:08.417Z,8.81
2023-01-09T14:14:57.477Z,8.86
2023-01-09T14:17:43.007Z,8.89
2023-01-09T14:20:37.689Z,8.90
2023-01-09T14:23:53.392Z,8.86
2023-01-09T14:26:42.666Z,8.80
2023-01-09T14:29:43.805Z,8.80
2023-01-09T14:32:33.765Z,8.82
2023-01-09T14:35:28.223Z,8.83
2023-01-09T14:38:26.589Z,8.83
2023-01-09T14:41:55.766Z,8.85
2023-01-09T14:45:02.890Z,8.88
2023-01-09T14:48:11.726Z,8.91
2023-01-09T14:50:59.817Z,8.92
2023-01-09T14:53:46.031Z,8.92
2023-01-09T14:56:34.775Z,8.91
2023-01-09T14:59:20.107Z,8.86
2023-01-09T15:02:10.958Z,8.82
2023-01-09T15:05:01.872Z,8.79
2023-01-09T15:08:00.210Z,8.79
2023-01-09T15:10:47.540Z,8.78
2023-01-09T15:13:48.045Z,8.76
2023-01-09T15:16:33.995Z,8.76
2023-01-09T15:19:20.004Z,8.75
2023-01-09T15:22:20.375Z,8.74
2023-01-09T15:25:27.358Z,8.74
2023-01-09T15:28:22.333Z,8.75
2023-01-09T15:31:13.968Z,8.76
2023-01-09T15:33:59.341Z,8.77
2023-01-09T15:36:44.845Z,8.78
2023-01-09T15:39:37.299Z,8.79
2023-01-09T15:42:45.089Z,8.78
2023-01-09T15:45:33.684Z,8.79
2023-01-09T15:48:30.808Z,8.80
2023-01-09T15:51:18.314Z,8.80
2023-01-09T15:54:04.085Z,8.81
2023-01-09T15:56:49.549Z,8.80
2023-01-09T15:59:35.045Z,8.77
2023-01-09T16:02:40.526Z,8.78
2023-01-09T16:05:25.769Z,8.78
2023-01-09T16:08:21.021Z,8.79
2023-01-09T16:11:10.753Z,8.80
2023-01-09T16:14:00.871Z,8.80
2023-01-09T16:16:47.609Z,8.81
2023-01-09T16:19:48.188Z,8.82
2023-01-09T16:22:35.796Z,8.78
2023-01-09T16:25:34.837Z,8.71
2023-01-09T16:28:26.785Z,8.63
2023-01-09T16:31:21.387Z,8.57
2023-01-09T16:34:07.090Z,8.49
2023-01-09T16:36:52.402Z,8.42
2023-01-09T16:39:38.718Z,8.33
2023-01-09T16:42:42.765Z,8.28
2023-01-09T16:45:40.327Z,8.25
2023-01-09T16:48:25.524Z,8.22
2023-01-09T16:51:15.026Z,8.16
2023-01-09T16:54:00.227Z,8.12
2023-01-09T16:56:49.155Z,8.08
2023-01-09T16:59:34.273Z,8.04
2023-01-09T17:02:20.505Z,8.01
2023-01-09T17:05:06.138Z,7.98
2023-01-09T17:07:51.339Z,7.98
2023-01-09T17:10:36.935Z,7.99
2023-01-09T17:13:23.054Z,8.00
2023-01-09T17:16:10.996Z,8.03
2023-01-09T17:18:56.355Z,8.05
2023-01-09T17:21:41.445Z,8.02
2023-01-09T17:24:45.250Z,8.00
2023-01-09T17:27:52.937Z,8.01
2023-01-09T17:30:38.206Z,7.98
2023-01-09T17:33:23.402Z,8.00
2023-01-09T17:36:31.820Z,7.97
2023-01-09T17:39:17.667Z,7.93
2023-01-09T17:42:02.894Z,7.91
2023-01-09T17:44:48.069Z,7.94
2023-01-09T17:47:33.926Z,7.92
2023-01-09T17:50:20.813Z,7.92
2023-01-09T17:53:06.313Z,7.90
2023-01-09T17:55:51.785Z,7.92
2023-01-09T17:58:37.111Z,7.93
2023-01-09T18:01:22.211Z,7.93
2023-01-09T18:04:07.558Z,7.94
2023-01-09T18:06:54.519Z,7.97
2023-01-09T18:09:39.578Z,7.96
2023-01-09T18:12:25.142Z,7.95
2023-01-09T18:15:10.698Z,7.92
2023-01-09T18:17:55.838Z,7.94
2023-01-09T18:20:45.020Z,7.91
2023-01-09T18:23:30.317Z,7.90
2023-01-09T18:26:22.782Z,7.89
2023-01-09T18:29:09.343Z,7.84
2023-01-09T18:31:55.062Z,7.83
2023-01-09T18:34:40.371Z,7.80
2023-01-09T18:37:25.564Z,7.79
2023-01-09T18:40:11.176Z,7.76
2023-01-09T18:42:56.137Z,7.74
2023-01-09T18:45:41.646Z,7.72
2023-01-09T18:48:26.776Z,7.68
2023-01-09T18:51:12.037Z,7.66
2023-01-09T18:53:58.612Z,7.67
2023-01-09T18:56:44.182Z,7.70
2023-01-09T18:59:29.565Z,7.73
2023-01-09T19:02:24.509Z,7.75
2023-01-09T19:05:10.018Z,7.78
2023-01-09T19:07:55.238Z,7.79
2023-01-09T19:10:40.560Z,7.78
2023-01-09T19:13:30.446Z,7.80
2023-01-09T19:16:16.752Z,7.82
2023-01-09T19:19:02.766Z,7.81
2023-01-09T19:21:48.401Z,7.82
2023-01-09T19:24:34.048Z,7.84
2023-01-09T19:27:19.142Z,7.86
2023-01-09T19:30:05.542Z,7.85
2023-01-09T19:32:51.042Z,7.84
2023-01-09T19:35:36.371Z,7.85
2023-01-09T19:38:26.687Z,7.82
2023-01-09T19:41:21.303Z,7.81
2023-01-09T19:44:06.722Z,7.80
2023-01-09T19:46:52.304Z,7.80
2023-01-09T19:49:37.985Z,7.78
2023-01-09T19:52:23.230Z,7.76
2023-01-09T19:55:11.121Z,7.77
2023-01-09T19:57:56.574Z,7.76
2023-01-09T20:00:42.264Z,7.82
2023-01-09T20:03:27.370Z,7.83
2023-01-09T20:06:17.493Z,7.89
2023-01-09T20:09:04.794Z,7.91
2023-01-09T20:11:50.234Z,7.92
2023-01-09T20:14:37.607Z,7.92
2023-01-09T20:17:24.003Z,7.91
2023-01-09T20:20:10.163Z,7.92
2023-01-09T20:22:55.637Z,7.93
2023-01-09T20:25:41.167Z,7.94
2023-01-09T20:28:27.853Z,7.95
2023-01-09T20:31:16.331Z,7.94
2023-01-09T20:34:01.970Z,7.89
2023-01-09T20:36:47.667Z,7.85
2023-01-09T20:39:33.096Z,7.85
2023-01-09T20:42:18.645Z,7.87
2023-01-09T20:45:04.243Z,7.88
2023-01-09T20:47:50.432Z,7.90
2023-01-09T20:50:35.569Z,7.92
2023-01-09T20:53:20.978Z,7.93
2023-01-09T20:56:07.603Z,7.95
2023-01-09T20:58:53.211Z,7.97
2023-01-09T21:01:40.225Z,7.98
2023-01-09T21:04:25.351Z,8.01
2023-01-09T21:07:10.884Z,8.02
2023-01-09T21:09:56.422Z,8.01
2023-01-09T21:12:41.860Z,8.03
2023-01-09T21:15:27.238Z,8.04
2023-01-09T21:18:12.571Z,8.05
2023-01-09T21:21:03.283Z,8.04
2023-01-09T21:23:53.926Z,8.07
2023-01-09T21:26:39.614Z,8.08
2023-01-09T21:29:24.915Z,8.05
2023-01-09T21:32:10.518Z,8.07
2023-01-09T21:34:55.788Z,8.08
2023-01-09T21:37:41.341Z,8.06
2023-01-09T21:40:26.655Z,8.05
2023-01-09T21:43:48.202Z,8.07
2023-01-09T21:46:51.579Z,8.07
2023-01-09T21:49:40.586Z,8.03
2023-01-09T21:52:25.851Z,8.00
2023-01-09T21:55:11.339Z,8.02
2023-01-09T21:57:56.841Z,8.03
2023-01-09T22:00:42.136Z,8.03
2023-01-09T22:03:27.544Z,8.02
2023-01-09T22:06:13.032Z,8.01
2023-01-09T22:08:58.480Z,8.01
2023-01-09T22:11:44.485Z,8.01
2023-01-09T22:14:30.357Z,8.04
2023-01-09T22:17:15.865Z,8.06
2023-01-09T22:20:01.412Z,8.05
2023-01-09T22:22:48.476Z,8.09
2023-01-09T22:25:36.775Z,8.05
2023-01-09T22:28:22.764Z,8.03
2023-01-09T22:31:10.532Z,8.06
2023-01-09T22:33:57.809Z,8.07
2023-01-09T22:36:50.293Z,8.07
2023-01-09T22:39:35.531Z,8.07
2023-01-09T22:42:20.619Z,8.05
2023-01-09T22:45:07.382Z,8.02
2023-01-09T22:47:53.177Z,8.04
2023-01-09T22:50:38.763Z,8.02
2023-01-09T22:53:24.075Z,8.05
2023-01-09T22:56:15.088Z,8.04
2023-01-09T22:59:01.062Z,8.04
2023-01-09T23:01:46.334Z,8.04
2023-01-09T23:04:31.656Z,8.05
2023-01-09T23:07:17.202Z,8.04
2023-01-09T23:10:03.478Z,8.02
2023-01-09T23:12:50.223Z,8.01
2023-01-09T23:15:35.377Z,8.00
2023-01-09T23:18:21.369Z,8.01
2023-01-09T23:21:06.845Z,7.97
2023-01-09T23:23:51.995Z,7.97
2023-01-09T23:26:43.462Z,8.00
2023-01-09T23:29:28.942Z,7.98
2023-01-09T23:32:14.286Z,7.95
2023-01-09T23:35:00.161Z,7.91
2023-01-09T23:37:45.458Z,7.92
2023-01-09T23:40:31.216Z,7.93
2023-01-09T23:43:16.467Z,7.95
2023-01-09T23:46:02.085Z,7.98
2023-01-09T23:48:48.730Z,7.96
2023-01-09T23:51:33.848Z,7.95
2023-01-09T23:54:19.211Z,7.96
2023-01-09T23:57:04.501Z,7.98
2023-01-09T23:59:49.733Z,7.98
